createdAt,value
2022-10-03T00:02:24.437Z,72.11
2022-10-03T00:05:11.300Z,72.42
2022-10-03T00:07:37.687Z,71.86
2022-10-03T00:10:30.983Z,70.69
2022-10-03T00:13:06.526Z,71.53
2022-10-03T00:15:42.287Z,72.28
2022-10-03T00:18:40.220Z,71.97
2022-10-03T00:21:25.501Z,71.66
2022-10-03T00:23:54.553Z,71.17
2022-10-03T00:26:40.335Z,71.51
2022-10-03T00:29:19.306Z,71.69
2022-10-03T00:32:01.264Z,70.51
2022-10-03T00:34:52.631Z,71.01
2022-10-03T00:37:19.097Z,71.60
2022-10-03T00:40:16.771Z,70.56
2022-10-03T00:43:00.735Z,70.89
2022-10-03T00:45:45.991Z,71.41
2022-10-03T00:48:49.594Z,71.53
2022-10-03T00:51:29.756Z,72.13
2022-10-03T00:54:13.284Z,72.06
2022-10-03T00:57:07.697Z,73.08
2022-10-03T00:59:53.096Z,72.42
2022-10-03T01:02:41.333Z,73.65
2022-10-03T01:05:32.751Z,73.85
2022-10-03T01:08:24.563Z,74.62
2022-10-03T01:11:06.470Z,74.70
2022-10-03T01:13:44.888Z,74.01
2022-10-03T01:16:21.464Z,72.95
2022-10-03T01:19:01.977Z,73.43
2022-10-03T01:21:53.885Z,72.29
2022-10-03T01:24:32.582Z,73.02
2022-10-03T01:27:05.572Z,74.07
2022-10-03T01:29:53.345Z,73.44
2022-10-03T01:32:39.315Z,74.60
2022-10-03T01:35:18.103Z,75.73
2022-10-03T01:38:06.196Z,75.40
2022-10-03T01:40:57.574Z,75.71
2022-10-03T01:43:38.771Z,77.17
2022-10-03T01:46:15.634Z,77.27
2022-10-03T01:48:58.894Z,77.12
2022-10-03T01:51:45.768Z,77.13
2022-10-03T01:54:41.625Z,77.63
2022-10-03T01:57:35.206Z,79.54
2022-10-03T02:00:11.056Z,80.03
2022-10-03T02:02:46.641Z,80.48
2022-10-03T02:05:29.064Z,79.09
2022-10-03T02:08:03.323Z,78.37
2022-10-03T02:10:53.991Z,76.62
2022-10-03T02:13:35.662Z,76.45
2022-10-03T02:16:02.412Z,77.14
2022-10-03T02:18:39.395Z,78.30
2022-10-03T02:21:15.937Z,78.71
2022-10-03T02:23:44.214Z,79.43
2022-10-03T02:26:44.746Z,79.11
2022-10-03T02:29:39.234Z,79.36
2022-10-03T02:32:43.968Z,79.45
2022-10-03T02:35:35.308Z,80.05
2022-10-03T02:38:23.764Z,79.94
2022-10-03T02:41:24.872Z,78.92
2022-10-03T02:44:09.789Z,79.11
2022-10-03T02:47:13.535Z,78.06
2022-10-03T02:50:14.296Z,78.47
2022-10-03T02:52:47.586Z,78.45
2022-10-03T02:55:35.201Z,78.30
2022-10-03T02:58:38.488Z,78.26
2022-10-03T03:01:24.218Z,78.35
2022-10-03T03:04:07.370Z,77.76
2022-10-03T03:07:11.159Z,78.27
2022-10-03T03:09:57.270Z,78.40
2022-10-03T03:12:33.021Z,78.63
2022-10-03T03:15:18.228Z,78.77
2022-10-03T03:18:08.828Z,80.17
2022-10-03T03:21:13.395Z,81.08
2022-10-03T03:24:06.253Z,82.27
2022-10-03T03:26:54.048Z,82.18
2022-10-03T03:29:55.975Z,82.86
2022-10-03T03:32:22.454Z,81.94
2022-10-03T03:34:54.708Z,82.35
2022-10-03T03:37:34.927Z,82.22
2022-10-03T03:40:22.436Z,82.04
2022-10-03T03:42:59.370Z,82.54
2022-10-03T03:45:32.120Z,82.54
2022-10-03T03:48:23.483Z,82.09
2022-10-03T03:50:52.810Z,81.62
2022-10-03T03:53:37.372Z,82.03
2022-10-03T03:56:22.430Z,83.32
2022-10-03T03:59:35.278Z,83.22
2022-10-03T04:02:55.389Z,82.78
2022-10-03T04:05:27.527Z,82.74
2022-10-03T04:07:56.773Z,82.97
2022-10-03T04:10:35.580Z,81.98
2022-10-03T04:13:27.142Z,80.67
2022-10-03T04:16:18.871Z,81.47
2022-10-03T04:19:00.790Z,81.61
2022-10-03T04:21:54.644Z,81.80
2022-10-03T04:24:28.673Z,80.84
2022-10-03T04:27:08.667Z,80.76
2022-10-03T04:29:42.302Z,81.83
2022-10-03T04:32:11.636Z,83.29
2022-10-03T04:35:09.791Z,84.45
2022-10-03T04:37:48.348Z,83.55
2022-10-03T04:40:26.604Z,84.18
2022-10-03T04:42:58.924Z,85.35
2022-10-03T04:45:46.162Z,85.35
2022-10-03T04:48:27.168Z,85.22
2022-10-03T04:51:41.651Z,84.78
2022-10-03T04:54:16.619Z,85.28
2022-10-03T04:57:08.244Z,85.15
2022-10-03T04:59:52.470Z,83.99
2022-10-03T05:02:36.706Z,83.52
2022-10-03T05:05:25.821Z,83.61
2022-10-03T05:08:01.101Z,82.80
2022-10-03T05:10:42.080Z,83.61
2022-10-03T05:13:20.268Z,83.59
2022-10-03T05:16:14.779Z,83.27
2022-10-03T05:18:53.356Z,84.48
2022-10-03T05:21:20.100Z,84.16
2022-10-03T05:23:46.494Z,84.37
2022-10-03T05:26:51.431Z,84.79
2022-10-03T05:29:31.434Z,84.98
2022-10-03T05:32:25.648Z,85.10
2022-10-03T05:35:07.341Z,85.78
2022-10-03T05:38:12.524Z,84.45
2022-10-03T05:40:44.596Z,83.48
2022-10-03T05:43:10.957Z,83.14
2022-10-03T05:46:19.058Z,83.30
2022-10-03T05:48:49.170Z,84.03
2022-10-03T05:51:18.841Z,83.43
2022-10-03T05:54:00.364Z,85.05
2022-10-03T05:56:45.516Z,85.39
2022-10-03T05:59:49.546Z,84.71
2022-10-03T06:02:30.225Z,86.43
2022-10-03T06:05:00.770Z,86.06
2022-10-03T06:07:40.378Z,85.70
2022-10-03T06:10:51.952Z,84.85
2022-10-03T06:13:53.317Z,84.72
2022-10-03T06:16:45.871Z,84.05
2022-10-03T06:19:21.869Z,84.50
2022-10-03T06:22:22.326Z,83.91
2022-10-03T06:25:05.955Z,82.84
2022-10-03T06:27:50.837Z,81.69
2022-10-03T06:30:24.908Z,81.69
2022-10-03T06:33:15.717Z,81.42
2022-10-03T06:36:10.052Z,81.88
2022-10-03T06:38:58.354Z,82.23
2022-10-03T06:42:01.870Z,82.18
2022-10-03T06:44:31.291Z,81.81
2022-10-03T06:47:06.498Z,82.10
2022-10-03T06:50:02.000Z,82.04
2022-10-03T06:52:52.604Z,81.26
2022-10-03T06:56:04.385Z,81.34
2022-10-03T06:58:58.381Z,80.77
2022-10-03T07:01:35.504Z,81.70
2022-10-03T07:04:22.809Z,81.44
2022-10-03T07:07:04.546Z,81.01
2022-10-03T07:09:55.813Z,81.94
2022-10-03T07:12:43.911Z,81.57
2022-10-03T07:15:19.073Z,80.69
2022-10-03T07:17:51.527Z,80.23
2022-10-03T07:20:25.097Z,80.24
2022-10-03T07:23:16.677Z,79.60
2022-10-03T07:26:30.121Z,80.83
2022-10-03T07:29:19.716Z,79.62
2022-10-03T07:31:56.183Z,77.76
2022-10-03T07:34:39.463Z,76.57
2022-10-03T07:37:17.835Z,73.30
2022-10-03T07:39:57.847Z,72.61
2022-10-03T07:42:43.577Z,68.47
2022-10-03T07:45:50.750Z,68.26
2022-10-03T07:48:23.182Z,67.96
2022-10-03T07:51:08.169Z,67.82
2022-10-03T07:53:54.117Z,67.19
2022-10-03T07:56:23.624Z,67.16
2022-10-03T07:59:17.450Z,67.18
2022-10-03T08:02:02.573Z,67.86
2022-10-03T08:04:51.160Z,69.39
2022-10-03T08:07:36.391Z,69.64
2022-10-03T08:10:18.804Z,69.54
2022-10-03T08:13:22.830Z,71.38
2022-10-03T08:16:26.430Z,72.49
2022-10-03T08:19:11.050Z,73.00
2022-10-03T08:21:51.372Z,73.74
2022-10-03T08:24:17.760Z,73.93
2022-10-03T08:26:56.289Z,72.34
2022-10-03T08:30:03.814Z,71.59
2022-10-03T08:32:51.990Z,70.77
2022-10-03T08:35:35.890Z,71.72
2022-10-03T08:38:28.221Z,71.75
2022-10-03T08:41:06.860Z,70.91
2022-10-03T08:44:15.284Z,71.19
2022-10-03T08:47:02.550Z,68.21
2022-10-03T08:49:55.195Z,69.76
2022-10-03T08:52:46.064Z,70.40
2022-10-03T08:55:28.828Z,70.19
2022-10-03T08:58:25.883Z,70.20
2022-10-03T09:01:26.601Z,69.35
2022-10-03T09:04:04.285Z,68.74
2022-10-03T09:07:17.941Z,67.22
2022-10-03T09:10:10.149Z,66.94
2022-10-03T09:12:45.631Z,68.03
2022-10-03T09:15:34.062Z,68.78
2022-10-03T09:18:12.843Z,68.12
2022-10-03T09:20:51.506Z,67.27
2022-10-03T09:23:29.172Z,66.68
2022-10-03T09:26:11.010Z,66.30
2022-10-03T09:28:52.506Z,67.24
2022-10-03T09:31:44.327Z,66.41
2022-10-03T09:34:48.645Z,65.15
2022-10-03T09:38:07.541Z,65.05
2022-10-03T09:41:11.882Z,65.98
2022-10-03T09:43:47.261Z,66.82
2022-10-03T09:46:30.569Z,65.99
2022-10-03T09:49:31.513Z,64.97
2022-10-03T09:52:15.784Z,64.77
2022-10-03T09:55:19.676Z,63.36
2022-10-03T09:58:04.915Z,63.95
2022-10-03T10:00:51.035Z,64.14
2022-10-03T10:03:56.725Z,61.78
2022-10-03T10:06:32.121Z,64.52
2022-10-03T10:09:17.303Z,65.07
2022-10-03T10:12:02.068Z,63.76
2022-10-03T10:14:39.199Z,63.98
2022-10-03T10:17:30.590Z,63.98
2022-10-03T10:20:27.904Z,65.32
2022-10-03T10:23:22.380Z,65.95
2022-10-03T10:25:52.470Z,66.81
2022-10-03T10:28:31.731Z,67.13
2022-10-03T10:31:22.727Z,65.19
2022-10-03T10:34:11.411Z,64.96
2022-10-03T10:36:56.770Z,64.27
2022-10-03T10:39:49.461Z,63.98
2022-10-03T10:42:54.827Z,62.63
2022-10-03T10:45:43.162Z,61.99
2022-10-03T10:48:45.025Z,61.04
2022-10-03T10:51:45.926Z,62.18
2022-10-03T10:54:43.285Z,63.72
2022-10-03T10:57:25.371Z,62.98
2022-10-03T11:00:30.472Z,62.77
2022-10-03T11:03:28.339Z,63.48
2022-10-03T11:06:12.981Z,64.40
2022-10-03T11:09:13.111Z,64.28
2022-10-03T11:11:57.939Z,64.79
2022-10-03T11:14:33.689Z,65.01
2022-10-03T11:17:11.914Z,65.13
2022-10-03T11:20:03.503Z,65.08
2022-10-03T11:23:07.556Z,65.83
2022-10-03T11:26:11.323Z,65.21
2022-10-03T11:29:05.620Z,65.32
2022-10-03T11:32:00.473Z,65.02
2022-10-03T11:34:42.303Z,63.76
2022-10-03T11:37:17.627Z,62.68
2022-10-03T11:39:47.074Z,62.77
2022-10-03T11:42:34.826Z,63.21
2022-10-03T11:45:04.153Z,63.28
2022-10-03T11:47:50.506Z,63.99
2022-10-03T11:50:26.837Z,63.69
2022-10-03T11:53:04.083Z,63.93
2022-10-03T11:55:42.802Z,63.05
2022-10-03T11:58:41.113Z,63.50
2022-10-03T12:01:13.695Z,61.82
2022-10-03T12:03:49.736Z,61.65
2022-10-03T12:06:26.078Z,61.88
2022-10-03T12:09:19.815Z,60.36
2022-10-03T12:12:12.048Z,60.70
2022-10-03T12:14:50.248Z,61.64
2022-10-03T12:17:25.155Z,62.81
2022-10-03T12:20:06.878Z,63.51
2022-10-03T12:22:47.210Z,64.18
2022-10-03T12:25:23.948Z,64.34
2022-10-03T12:28:02.966Z,64.57
2022-10-03T12:30:39.474Z,64.60
2022-10-03T12:33:08.658Z,65.55
2022-10-03T12:35:53.253Z,65.92
2022-10-03T12:38:31.837Z,64.73
2022-10-03T12:41:07.853Z,65.64
2022-10-03T12:43:40.377Z,66.27
2022-10-03T12:46:16.447Z,64.99
2022-10-03T12:48:47.817Z,64.38
2022-10-03T12:51:42.176Z,65.46
2022-10-03T12:54:38.679Z,65.17
2022-10-03T12:57:38.937Z,65.41
2022-10-03T13:00:13.541Z,65.97
2022-10-03T13:02:51.853Z,66.84
2022-10-03T13:05:56.267Z,66.57
2022-10-03T13:09:04.532Z,66.13
2022-10-03T13:11:40.365Z,65.31
2022-10-03T13:14:18.354Z,65.38
2022-10-03T13:17:01.927Z,65.00
2022-10-03T13:20:00.692Z,65.98
2022-10-03T13:22:48.868Z,65.88
2022-10-03T13:25:33.638Z,65.55
2022-10-03T13:28:25.219Z,64.90
2022-10-03T13:30:54.739Z,65.88
2022-10-03T13:33:27.913Z,65.61
2022-10-03T13:36:01.149Z,65.22
2022-10-03T13:39:04.233Z,65.30
2022-10-03T13:42:14.608Z,64.74
2022-10-03T13:44:47.056Z,64.68
2022-10-03T13:47:35.277Z,63.88
2022-10-03T13:50:07.249Z,63.83
2022-10-03T13:52:42.895Z,64.05
2022-10-03T13:55:15.051Z,65.18
2022-10-03T13:58:05.955Z,66.58
2022-10-03T14:01:04.842Z,65.96
2022-10-03T14:04:16.220Z,65.02
2022-10-03T14:06:59.669Z,65.52
2022-10-03T14:10:05.112Z,63.70
2022-10-03T14:12:56.644Z,63.67
2022-10-03T14:15:31.678Z,63.36
2022-10-03T14:18:26.169Z,65.03
2022-10-03T14:20:55.528Z,65.94
2022-10-03T14:24:09.529Z,66.42
2022-10-03T14:26:47.760Z,66.35
2022-10-03T14:29:27.587Z,65.69
2022-10-03T14:32:01.843Z,66.36
2022-10-03T14:34:28.267Z,67.00
2022-10-03T14:37:13.003Z,67.16
2022-10-03T14:40:13.518Z,67.57
2022-10-03T14:43:05.457Z,67.31
2022-10-03T14:45:38.431Z,68.29
2022-10-03T14:48:20.986Z,68.46
2022-10-03T14:50:49.694Z,68.01
2022-10-03T14:53:22.909Z,68.84
2022-10-03T14:56:08.536Z,69.28
2022-10-03T14:58:46.850Z,69.69
2022-10-03T15:01:16.233Z,69.51
2022-10-03T15:03:49.718Z,69.41
2022-10-03T15:06:20.902Z,68.67
2022-10-03T15:08:53.746Z,68.33
2022-10-03T15:11:30.131Z,67.59
2022-10-03T15:13:59.903Z,68.05
2022-10-03T15:16:26.833Z,67.19
2022-10-03T15:19:06.366Z,67.19
2022-10-03T15:21:35.190Z,66.35
2022-10-03T15:24:06.772Z,66.87
2022-10-03T15:26:35.989Z,67.35
2022-10-03T15:29:07.328Z,68.33
2022-10-03T15:31:39.740Z,68.67
2022-10-03T15:34:17.234Z,68.48
2022-10-03T15:36:49.259Z,68.78
2022-10-03T15:39:23.772Z,68.97
2022-10-03T15:41:54.771Z,68.13
2022-10-03T15:44:30.423Z,68.52
2022-10-03T15:47:00.491Z,68.66
2022-10-03T15:49:36.624Z,68.14
2022-10-03T15:52:19.261Z,69.49
2022-10-03T15:54:54.720Z,68.78
2022-10-03T15:57:32.652Z,69.79
2022-10-03T16:00:03.350Z,70.34
2022-10-03T16:02:30.098Z,70.35
2022-10-03T16:04:57.096Z,70.58
2022-10-03T16:07:33.601Z,70.43
2022-10-03T16:10:23.237Z,70.84
2022-10-03T16:12:52.429Z,70.92
2022-10-03T16:15:51.467Z,71.72
2022-10-03T16:18:20.758Z,71.29
2022-10-03T16:20:53.581Z,72.19
2022-10-03T16:23:19.967Z,72.52
2022-10-03T16:25:46.327Z,72.31
2022-10-03T16:28:15.290Z,72.16
2022-10-03T16:30:46.738Z,73.15
2022-10-03T16:33:18.189Z,73.77
2022-10-03T16:35:47.925Z,73.52
2022-10-03T16:38:21.403Z,73.69
2022-10-03T16:41:04.983Z,74.44
2022-10-03T16:43:34.682Z,74.92
2022-10-03T16:46:05.659Z,75.92
2022-10-03T16:48:34.101Z,75.50
2022-10-03T16:51:01.274Z,75.40
2022-10-03T16:53:27.916Z,75.67
2022-10-03T16:56:06.465Z,75.26
2022-10-03T16:58:35.531Z,75.96
2022-10-03T17:01:26.969Z,75.89
2022-10-03T17:04:02.240Z,75.42
2022-10-03T17:06:35.006Z,75.78
2022-10-03T17:09:14.972Z,75.98
2022-10-03T17:11:42.711Z,76.31
2022-10-03T17:14:09.574Z,76.75
2022-10-03T17:16:40.206Z,77.57
2022-10-03T17:19:16.699Z,78.09
2022-10-03T17:21:48.254Z,78.39
2022-10-03T17:24:20.462Z,78.64
2022-10-03T17:26:50.124Z,79.08
2022-10-03T17:29:26.419Z,79.92
2022-10-03T17:31:58.865Z,80.06
2022-10-03T17:34:56.363Z,79.88
2022-10-03T17:37:51.401Z,80.24
2022-10-03T17:40:26.698Z,81.18
2022-10-03T17:42:58.975Z,82.16
2022-10-03T17:45:28.397Z,81.95
2022-10-03T17:48:03.538Z,82.07
2022-10-03T17:50:30.055Z,82.37
2022-10-03T17:52:57.350Z,82.02
2022-10-03T17:55:29.632Z,82.92
2022-10-03T17:58:00.183Z,82.50
2022-10-03T18:00:31.395Z,82.31
2022-10-03T18:03:03.028Z,82.83
2022-10-03T18:05:35.175Z,83.46
2022-10-03T18:08:05.237Z,83.68
2022-10-03T18:10:32.888Z,83.56
2022-10-03T18:13:01.693Z,84.01
2022-10-03T18:15:28.063Z,83.17
2022-10-03T18:18:23.915Z,83.41
2022-10-03T18:21:15.150Z,83.76
2022-10-03T18:23:55.508Z,83.00
2022-10-03T18:26:31.318Z,83.08
2022-10-03T18:29:19.783Z,82.91
2022-10-03T18:31:59.096Z,83.58
2022-10-03T18:35:01.051Z,82.81
2022-10-03T18:37:27.425Z,82.94
2022-10-03T18:39:56.141Z,82.42
2022-10-03T18:42:25.337Z,82.59
2022-10-03T18:44:51.854Z,81.89
2022-10-03T18:47:37.425Z,82.71
2022-10-03T18:50:19.082Z,82.60
2022-10-03T18:53:17.240Z,82.58
2022-10-03T18:56:23.336Z,82.93
2022-10-03T18:59:33.708Z,82.95
2022-10-03T19:02:00.850Z,82.41
2022-10-03T19:04:35.900Z,82.81
2022-10-03T19:07:24.162Z,82.58
2022-10-03T19:10:06.016Z,83.42
2022-10-03T19:12:35.643Z,82.98
2022-10-03T19:15:17.186Z,83.30
2022-10-03T19:18:02.017Z,83.56
2022-10-03T19:20:33.784Z,83.69
2022-10-03T19:23:13.523Z,82.81
2022-10-03T19:25:42.960Z,83.02
2022-10-03T19:28:28.197Z,83.22
2022-10-03T19:31:05.782Z,82.37
2022-10-03T19:33:42.803Z,82.14
2022-10-03T19:36:17.630Z,81.91
2022-10-03T19:38:45.895Z,81.52
2022-10-03T19:41:33.794Z,81.26
2022-10-03T19:44:14.738Z,81.40
2022-10-03T19:46:46.852Z,80.49
2022-10-03T19:49:40.208Z,80.12
2022-10-03T19:52:29.482Z,79.33
2022-10-03T19:55:12.987Z,80.10
2022-10-03T19:57:54.967Z,80.39
2022-10-03T20:00:25.128Z,78.90
2022-10-03T20:02:52.794Z,78.77
2022-10-03T20:05:22.534Z,78.65
2022-10-03T20:08:07.844Z,78.50
2022-10-03T20:10:56.190Z,79.29
2022-10-03T20:13:23.080Z,78.71
2022-10-03T20:15:50.147Z,78.85
2022-10-03T20:18:32.011Z,78.95
2022-10-03T20:20:59.128Z,78.56
2022-10-03T20:23:27.647Z,78.89
2022-10-03T20:26:20.281Z,79.02
2022-10-03T20:28:52.657Z,79.06
2022-10-03T20:31:22.778Z,79.17
2022-10-03T20:33:51.366Z,78.59
2022-10-03T20:36:21.911Z,78.44
2022-10-03T20:39:11.834Z,79.10
2022-10-03T20:41:41.513Z,79.69
2022-10-03T20:44:23.653Z,80.16
2022-10-03T20:46:51.991Z,80.05
2022-10-03T20:49:32.539Z,80.49
2022-10-03T20:52:01.190Z,79.97
2022-10-03T20:54:47.982Z,79.87
2022-10-03T20:57:17.249Z,80.47
2022-10-03T20:59:49.570Z,80.54
2022-10-03T21:02:24.715Z,81.33
2022-10-03T21:04:55.004Z,80.36
2022-10-03T21:07:38.430Z,80.85
2022-10-03T21:10:20.711Z,80.16
2022-10-03T21:12:50.027Z,81.03
2022-10-03T21:15:25.870Z,80.48
2022-10-03T21:17:55.609Z,79.81
2022-10-03T21:20:28.382Z,79.52
2022-10-03T21:22:58.968Z,80.39
2022-10-03T21:25:36.812Z,80.32
2022-10-03T21:28:04.000Z,78.58
2022-10-03T21:30:58.820Z,77.40
2022-10-03T21:33:59.908Z,76.99
2022-10-03T21:36:38.579Z,75.42
2022-10-03T21:39:17.767Z,74.75
2022-10-03T21:42:19.716Z,73.58
2022-10-03T21:44:58.536Z,72.73
2022-10-03T21:47:53.160Z,72.81
2022-10-03T21:50:31.901Z,72.14
2022-10-03T21:53:08.280Z,71.96
2022-10-03T21:55:52.252Z,71.71
2022-10-03T21:58:53.874Z,71.66
2022-10-03T22:01:44.950Z,72.72
2022-10-03T22:04:21.817Z,72.32
2022-10-03T22:06:58.075Z,72.37
2022-10-03T22:09:24.547Z,71.99
2022-10-03T22:12:00.231Z,71.38
2022-10-03T22:14:37.731Z,70.70
2022-10-03T22:17:41.921Z,70.75
2022-10-03T22:20:16.619Z,72.08
2022-10-03T22:23:04.467Z,73.25
2022-10-03T22:25:56.717Z,72.03
2022-10-03T22:28:41.438Z,72.83
2022-10-03T22:31:29.364Z,72.76
2022-10-03T22:34:02.012Z,72.06
2022-10-03T22:36:29.095Z,71.89
2022-10-03T22:38:56.010Z,71.66
2022-10-03T22:41:28.911Z,71.63
2022-10-03T22:43:56.349Z,72.15
2022-10-03T22:46:28.760Z,71.13
2022-10-03T22:49:04.433Z,71.26
2022-10-03T22:51:31.291Z,70.13
2022-10-03T22:54:11.671Z,70.06
2022-10-03T22:56:47.737Z,70.50
2022-10-03T22:59:39.256Z,70.68
2022-10-03T23:02:09.022Z,71.19
2022-10-03T23:04:50.416Z,70.88
2022-10-03T23:07:23.230Z,71.57
2022-10-03T23:09:58.825Z,70.58
2022-10-03T23:12:29.033Z,71.21
2022-10-03T23:14:56.269Z,70.93
2022-10-03T23:17:50.375Z,70.03
2022-10-03T23:20:42.810Z,70.02
2022-10-03T23:23:16.277Z,70.41
2022-10-03T23:26:17.735Z,70.60
2022-10-03T23:29:03.559Z,70.39
2022-10-03T23:31:56.474Z,69.47
2022-10-03T23:34:35.251Z,69.91
2022-10-03T23:37:04.165Z,70.37
2022-10-03T23:39:35.749Z,70.55
2022-10-03T23:42:38.743Z,69.71
2022-10-03T23:45:15.201Z,70.29
2022-10-03T23:47:56.992Z,69.03
2022-10-03T23:50:36.839Z,69.30
2022-10-03T23:53:03.846Z,68.93
2022-10-03T23:55:33.481Z,68.45
2022-10-03T23:58:00.519Z,68.65
